Station Historical Data
Daily Summary for May 24, 2012 Units:  English    Metric   Both
« Previous Day
Next Day »
Daily Weekly Monthly Yearly Custom
  High: Low: Average:
Temperature: 85.8 °F 71.6 °F 80.6 °F
Dew Point: 70.7 °F 60.5 °F 66.3 °F
Humidity: 79% 49% 62%
Wind Speed: 14.0mph 2.0mph 5.9mph
Wind Gust: 15.0mph - -
Wind- - SSE
Pressure: 29.87 in 29.79 in -
Precipitation: 0.00 in    
Historical Graphs
 
 
Tabular Data for May 24, 2012
Time Temperature Dew Point Pressure Wind Wind Speed Wind Gust Humidity Rainfall Rate (Hourly) Conditions
09:57 71.6 °F 62.1 °F 29.87 in East 4.0 mph 11.0 mph 72% 0.00 in
09:59 71.8 °F 61.1 °F 29.87 in ESE 9.0 mph 9.0 mph 69% 0.00 in
10:04 72.4 °F 60.8 °F 29.87 in SSE 6.0 mph 11.0 mph 67% 0.00 in
10:09 72.9 °F 60.5 °F 29.87 in SE 7.0 mph 11.0 mph 65% 0.00 in
10:14 73.2 °F 61.6 °F 29.87 in SE 8.0 mph 12.0 mph 67% 0.00 in
10:19 73.5 °F 62.3 °F 29.87 in ESE 6.0 mph 10.0 mph 68% 0.00 in
10:24 73.9 °F 61.4 °F 29.87 in SE 7.0 mph 12.0 mph 65% 0.00 in
10:29 74.2 °F 61.7 °F 29.87 in SSE 8.0 mph 10.0 mph 65% 0.00 in
10:34 74.3 °F 62.2 °F 29.87 in SSE 14.0 mph 14.0 mph 66% 0.00 in
10:39 74.4 °F 62.3 °F 29.87 in SE 7.0 mph 12.0 mph 66% 0.00 in
10:44 75.0 °F 63.7 °F 29.87 in SSE 8.0 mph 12.0 mph 68% 0.00 in
10:49 75.4 °F 63.7 °F 29.87 in SSE 6.0 mph 9.0 mph 67% 0.00 in
10:54 75.8 °F 63.6 °F 29.87 in SSE 6.0 mph 10.0 mph 66% 0.00 in
10:59 76.4 °F 65.1 °F 29.87 in South 3.0 mph 7.0 mph 68% 0.00 in
11:04 76.8 °F 65.0 °F 29.87 in SE 6.0 mph 10.0 mph 67% 0.00 in
11:09 77.1 °F 64.4 °F 29.87 in SE 5.0 mph 10.0 mph 65% 0.00 in
11:14 77.4 °F 65.2 °F 29.87 in SSE 9.0 mph 11.0 mph 66% 0.00 in
11:19 77.4 °F 64.7 °F 29.87 in SSW 3.0 mph 10.0 mph 65% 0.00 in
11:24 78.0 °F 66.2 °F 29.87 in SSE 4.0 mph 7.0 mph 67% 0.00 in
11:29 77.8 °F 66.0 °F 29.87 in SSE 3.0 mph 8.0 mph 67% 0.00 in
11:34 78.1 °F 65.8 °F 29.87 in SE 6.0 mph 10.0 mph 66% 0.00 in
11:39 78.3 °F 66.0 °F 29.87 in SSE 4.0 mph 8.0 mph 66% 0.00 in
11:44 79.0 °F 68.0 °F 29.87 in SE 7.0 mph 7.0 mph 69% 0.00 in
11:49 79.2 °F 66.9 °F 29.87 in SE 5.0 mph 10.0 mph 66% 0.00 in
11:54 79.3 °F 67.0 °F 29.87 in South 3.0 mph 8.0 mph 66% 0.00 in
11:59 79.5 °F 68.0 °F 29.87 in ESE 7.0 mph 10.0 mph 68% 0.00 in
12:04 79.7 °F 67.3 °F 29.87 in SSE 6.0 mph 9.0 mph 66% 0.00 in
12:09 80.0 °F 67.6 °F 29.87 in SSE 3.0 mph 9.0 mph 66% 0.00 in
12:14 80.3 °F 67.9 °F 29.87 in SE 8.0 mph 8.0 mph 66% 0.00 in
12:19 80.4 °F 67.1 °F 29.87 in SSW 4.0 mph 9.0 mph 64% 0.00 in
12:24 80.6 °F 68.2 °F 29.87 in SW 7.0 mph 7.0 mph 66% 0.00 in
12:29 80.7 °F 67.4 °F 29.87 in SSW 7.0 mph 12.0 mph 64% 0.00 in
12:34 80.7 °F 68.3 °F 29.86 in SE 13.0 mph 13.0 mph 66% 0.00 in
12:39 80.7 °F 67.8 °F 29.86 in SE 9.0 mph 11.0 mph 65% 0.00 in
12:44 80.8 °F 68.4 °F 29.86 in SSE 2.0 mph 11.0 mph 66% 0.00 in
12:49 81.3 °F 67.5 °F 29.86 in SSE 7.0 mph 9.0 mph 63% 0.00 in
12:54 81.7 °F 68.8 °F 29.86 in ESE 8.0 mph 8.0 mph 65% 0.00 in
12:59 81.8 °F 68.9 °F 29.87 in SW 3.0 mph 7.0 mph 65% 0.00 in
13:05 81.9 °F 67.6 °F 29.86 in East 6.0 mph 13.0 mph 62% 0.00 in
13:10 82.1 °F 68.7 °F 29.86 in South 5.0 mph 9.0 mph 64% 0.00 in
13:15 82.6 °F 68.3 °F 29.86 in SW 7.0 mph 7.0 mph 62% 0.00 in
13:20 82.5 °F 67.7 °F 29.87 in South 5.0 mph 11.0 mph 61% 0.00 in
13:25 82.5 °F 67.7 °F 29.86 in SSE 11.0 mph 11.0 mph 61% 0.00 in
13:30 82.9 °F 69.0 °F 29.86 in SSW 3.0 mph 10.0 mph 63% 0.00 in
13:35 83.2 °F 70.7 °F 29.86 in ESE 9.0 mph 12.0 mph 66% 0.00 in
13:40 83.0 °F 70.0 °F 29.86 in SE 6.0 mph 7.0 mph 65% 0.00 in
13:45 83.2 °F 70.2 °F 29.85 in South 6.0 mph 11.0 mph 65% 0.00 in
13:50 83.5 °F 69.1 °F 29.86 in SSE 5.0 mph 9.0 mph 62% 0.00 in
13:55 83.2 °F 69.8 °F 29.85 in ESE 4.0 mph 10.0 mph 64% 0.00 in
14:00 83.7 °F 69.8 °F 29.85 in South 4.0 mph 11.0 mph 63% 0.00 in
14:05 84.0 °F 68.1 °F 29.85 in SW 5.0 mph 11.0 mph 59% 0.00 in
14:10 84.1 °F 68.2 °F 29.85 in South 7.0 mph 13.0 mph 59% 0.00 in
14:15 84.4 °F 69.5 °F 29.85 in SSW 4.0 mph 13.0 mph 61% 0.00 in
14:20 84.7 °F 69.8 °F 29.84 in SW 10.0 mph 11.0 mph 61% 0.00 in
14:25 84.6 °F 68.2 °F 29.84 in South 6.0 mph 10.0 mph 58% 0.00 in
14:30 83.9 °F 68.5 °F 29.84 in SSE 6.0 mph 8.0 mph 60% 0.00 in
14:35 83.4 °F 68.1 °F 29.84 in SE 7.0 mph 11.0 mph 60% 0.00 in
14:40 83.5 °F 69.6 °F 29.84 in SSE 9.0 mph 11.0 mph 63% 0.00 in
14:46 84.1 °F 69.2 °F 29.84 in SSW 9.0 mph 12.0 mph 61% 0.00 in
14:51 83.9 °F 68.1 °F 29.84 in SSE 5.0 mph 9.0 mph 59% 0.00 in
14:56 83.9 °F 67.1 °F 29.83 in SSW 7.0 mph 12.0 mph 57% 0.00 in
15:01 84.2 °F 66.3 °F 29.83 in SW 8.0 mph 10.0 mph 55% 0.00 in
15:06 84.3 °F 66.4 °F 29.83 in SSE 7.0 mph 12.0 mph 55% 0.00 in
15:11 84.5 °F 65.5 °F 29.83 in SSW 5.0 mph 10.0 mph 53% 0.00 in
15:16 84.5 °F 69.1 °F 29.83 in SE 7.0 mph 9.0 mph 60% 0.00 in
15:21 85.2 °F 67.8 °F 29.83 in SSE 3.0 mph 9.0 mph 56% 0.00 in
15:26 85.3 °F 66.8 °F 29.83 in SE 8.0 mph 14.0 mph 54% 0.00 in
15:32 84.5 °F 67.1 °F 29.83 in SSE 9.0 mph 13.0 mph 56% 0.00 in
15:37 84.3 °F 66.4 °F 29.83 in South 9.0 mph 14.0 mph 55% 0.00 in
15:42 84.9 °F 65.3 °F 29.83 in SSE 8.0 mph 13.0 mph 52% 0.00 in
15:47 84.8 °F 65.8 °F 29.82 in South 7.0 mph 10.0 mph 53% 0.00 in
15:52 84.9 °F 65.9 °F 29.82 in SE 8.0 mph 11.0 mph 53% 0.00 in
15:57 84.2 °F 66.3 °F 29.83 in SSE 9.0 mph 12.0 mph 55% 0.00 in
16:02 84.3 °F 67.4 °F 29.82 in SE 12.0 mph 14.0 mph 57% 0.00 in
16:07 84.9 °F 65.3 °F 29.82 in SSW 7.0 mph 15.0 mph 52% 0.00 in
16:12 84.9 °F 65.9 °F 29.82 in SSE 5.0 mph 10.0 mph 53% 0.00 in
16:17 84.8 °F 65.2 °F 29.82 in SSE 4.0 mph 10.0 mph 52% 0.00 in
16:22 85.0 °F 64.9 °F 29.81 in ESE 9.0 mph 14.0 mph 51% 0.00 in
16:27 85.0 °F 65.4 °F 29.81 in SE 7.0 mph 11.0 mph 52% 0.00 in
16:32 85.1 °F 66.6 °F 29.81 in SSE 8.0 mph 10.0 mph 54% 0.00 in
16:38 85.6 °F 66.5 °F 29.81 in SSE 5.0 mph 8.0 mph 53% 0.00 in
16:43 85.4 °F 64.7 °F 29.80 in SSE 8.0 mph 14.0 mph 50% 0.00 in
16:48 85.6 °F 66.0 °F 29.80 in SE 10.0 mph 11.0 mph 52% 0.00 in
16:53 85.7 °F 64.4 °F 29.80 in SE 8.0 mph 11.0 mph 49% 0.00 in
16:58 85.6 °F 64.8 °F 29.80 in SSW 7.0 mph 14.0 mph 50% 0.00 in
17:03 85.8 °F 65.6 °F 29.80 in South 4.0 mph 12.0 mph 51% 0.00 in
17:08 85.7 °F 65.5 °F 29.80 in SE 8.0 mph 14.0 mph 51% 0.00 in
17:13 85.5 °F 64.8 °F 29.79 in SSE 8.0 mph 12.0 mph 50% 0.00 in
17:18 84.9 °F 63.6 °F 29.80 in SSE 6.0 mph 12.0 mph 49% 0.00 in
17:23 84.5 °F 64.4 °F 29.79 in SE 7.0 mph 13.0 mph 51% 0.00 in
17:28 85.1 °F 65.5 °F 29.79 in ESE 5.0 mph 10.0 mph 52% 0.00 in
17:34 85.0 °F 64.9 °F 29.79 in SE 4.0 mph 9.0 mph 51% 0.00 in
17:38 84.7 °F 64.6 °F 29.79 in SSW 4.0 mph 6.0 mph 51% 0.00 in
17:44 84.3 °F 64.8 °F 29.79 in SSE 8.0 mph 13.0 mph 52% 0.00 in
17:49 83.8 °F 65.4 °F 29.79 in SSE 6.0 mph 11.0 mph 54% 0.00 in
17:54 83.6 °F 65.2 °F 29.79 in SSE 11.0 mph 11.0 mph 54% 0.00 in
17:59 83.3 °F 64.9 °F 29.79 in SSE 3.0 mph 8.0 mph 54% 0.00 in
18:04 83.8 °F 65.4 °F 29.79 in South 5.0 mph 13.0 mph 54% 0.00 in
18:09 84.2 °F 65.2 °F 29.79 in SSE 5.0 mph 9.0 mph 53% 0.00 in
18:14 84.6 °F 65.6 °F 29.79 in SSE 10.0 mph 14.0 mph 53% 0.00 in
18:19 85.0 °F 66.5 °F 29.80 in South 8.0 mph 11.0 mph 54% 0.00 in
18:24 85.2 °F 65.6 °F 29.79 in SE 10.0 mph 11.0 mph 52% 0.00 in
18:29 85.4 °F 65.8 °F 29.80 in South 10.0 mph 12.0 mph 52% 0.00 in
18:34 85.3 °F 64.6 °F 29.79 in SW 9.0 mph 12.0 mph 50% 0.00 in
18:39 85.2 °F 66.2 °F 29.79 in SE 7.0 mph 14.0 mph 53% 0.00 in
18:44 85.0 °F 65.4 °F 29.79 in South 7.0 mph 13.0 mph 52% 0.00 in
18:49 84.9 °F 66.4 °F 29.79 in SSE 8.0 mph 11.0 mph 54% 0.00 in
18:54 85.0 °F 66.5 °F 29.79 in ESE 5.0 mph 9.0 mph 54% 0.00 in
18:59 85.0 °F 66.0 °F 29.79 in SE 10.0 mph 12.0 mph 53% 0.00 in
19:04 84.7 °F 65.7 °F 29.79 in SSE 6.0 mph 11.0 mph 53% 0.00 in
19:09 84.6 °F 66.1 °F 29.79 in South 6.0 mph 11.0 mph 54% 0.00 in
19:14 84.3 °F 65.3 °F 29.79 in SSE 7.0 mph 12.0 mph 53% 0.00 in
19:19 84.2 °F 65.8 °F 29.79 in SSE 9.0 mph 13.0 mph 54% 0.00 in
19:24 84.0 °F 65.6 °F 29.79 in SSE 9.0 mph 11.0 mph 54% 0.00 in
19:29 83.9 °F 65.5 °F 29.79 in SE 9.0 mph 12.0 mph 54% 0.00 in
19:34 83.7 °F 65.8 °F 29.79 in SSE 9.0 mph 12.0 mph 55% 0.00 in
19:39 83.6 °F 65.7 °F 29.79 in SSW 9.0 mph 10.0 mph 55% 0.00 in
19:44 83.4 °F 66.1 °F 29.79 in SE 6.0 mph 7.0 mph 56% 0.00 in
19:49 83.2 °F 66.4 °F 29.80 in South 6.0 mph 9.0 mph 57% 0.00 in
19:54 82.9 °F 66.1 °F 29.80 in SSW 4.0 mph 12.0 mph 57% 0.00 in
19:59 82.6 °F 66.3 °F 29.80 in South 4.0 mph 8.0 mph 58% 0.00 in
20:04 82.4 °F 66.2 °F 29.80 in SSE 6.0 mph 8.0 mph 58% 0.00 in
20:09 82.1 °F 66.8 °F 29.80 in SSE 5.0 mph 7.0 mph 60% 0.00 in
20:14 81.8 °F 67.1 °F 29.80 in SSE 2.0 mph 5.0 mph 61% 0.00 in
20:19 81.4 °F 67.1 °F 29.80 in SE 5.0 mph 5.0 mph 62% 0.00 in
20:24 81.0 °F 66.8 °F 29.80 in SE 4.0 mph 6.0 mph 62% 0.00 in
20:30 80.7 °F 66.9 °F 29.80 in SSE 3.0 mph 6.0 mph 63% 0.00 in
20:35 80.1 °F 66.8 °F 29.81 in SSE 3.0 mph 5.0 mph 64% 0.00 in
20:40 79.5 °F 66.7 °F 29.81 in SSE 2.0 mph 3.0 mph 65% 0.00 in
20:45 78.9 °F 66.6 °F 29.81 in SE 3.0 mph 4.0 mph 66% 0.00 in
20:50 78.5 °F 66.6 °F 29.81 in SSE 2.0 mph 4.0 mph 67% 0.00 in
20:56 78.0 °F 66.6 °F 29.82 in SSE 3.0 mph 6.0 mph 68% 0.00 in
21:01 77.7 °F 66.3 °F 29.82 in SE 3.0 mph 4.0 mph 68% 0.00 in
21:06 77.4 °F 66.0 °F 29.82 in SE 4.0 mph 4.0 mph 68% 0.00 in
21:11 77.3 °F 65.9 °F 29.82 in SE 5.0 mph 6.0 mph 68% 0.00 in
21:16 77.3 °F 65.9 °F 29.82 in SSE 3.0 mph 5.0 mph 68% 0.00 in
21:21 77.3 °F 65.9 °F 29.82 in SE 4.0 mph 5.0 mph 68% 0.00 in
21:26 77.3 °F 66.3 °F 29.82 in SSE 3.0 mph 7.0 mph 69% 0.00 in
21:31 77.1 °F 66.2 °F 29.82 in SE 4.0 mph 6.0 mph 69% 0.00 in
21:36 76.9 °F 66.4 °F 29.81 in SE 5.0 mph 6.0 mph 70% 0.00 in
21:42 76.7 °F 66.2 °F 29.81 in SE 4.0 mph 5.0 mph 70% 0.00 in
21:43 76.7 °F 66.2 °F 29.81 in SE 6.0 mph 7.0 mph 70% 0.00 in
21:48 76.7 °F 66.2 °F 29.81 in SE 4.0 mph 7.0 mph 70% 0.00 in
21:53 76.6 °F 66.5 °F 29.81 in SE 5.0 mph 7.0 mph 71% 0.00 in
21:58 76.5 °F 66.4 °F 29.80 in SE 7.0 mph 8.0 mph 71% 0.00 in
22:03 76.6 °F 66.5 °F 29.80 in SE 5.0 mph 10.0 mph 71% 0.00 in
22:09 76.2 °F 66.5 °F 29.81 in SE 5.0 mph 5.0 mph 72% 0.00 in
22:14 76.0 °F 66.7 °F 29.81 in SSE 4.0 mph 5.0 mph 73% 0.00 in
22:19 75.7 °F 66.8 °F 29.81 in SE 3.0 mph 4.0 mph 74% 0.00 in
22:24 75.6 °F 66.7 °F 29.81 in SE 3.0 mph 7.0 mph 74% 0.00 in
22:30 75.5 °F 66.6 °F 29.82 in SE 4.0 mph 6.0 mph 74% 0.00 in
22:35 75.5 °F 67.0 °F 29.82 in SE 3.0 mph 6.0 mph 75% 0.00 in
22:40 75.5 °F 67.0 °F 29.82 in SE 3.0 mph 7.0 mph 75% 0.00 in
22:45 75.5 °F 67.0 °F 29.82 in SE 4.0 mph 7.0 mph 75% 0.00 in
22:50 75.4 °F 66.9 °F 29.82 in SE 8.0 mph 8.0 mph 75% 0.00 in
22:55 75.3 °F 66.8 °F 29.83 in SE 5.0 mph 6.0 mph 75% 0.00 in
23:00 75.2 °F 67.1 °F 29.83 in ESE 3.0 mph 6.0 mph 76% 0.00 in
23:05 74.9 °F 66.8 °F 29.83 in SSE 5.0 mph 7.0 mph 76% 0.00 in
23:10 74.8 °F 67.1 °F 29.83 in SE 3.0 mph 5.0 mph 77% 0.00 in
23:15 74.7 °F 67.0 °F 29.84 in SSE 2.0 mph 4.0 mph 77% 0.00 in
23:20 74.5 °F 66.8 °F 29.84 in SE 3.0 mph 5.0 mph 77% 0.00 in
23:25 74.4 °F 66.7 °F 29.84 in SE 2.0 mph 4.0 mph 77% 0.00 in
23:30 74.2 °F 66.9 °F 29.84 in SE 2.0 mph 6.0 mph 78% 0.00 in
23:35 74.1 °F 66.8 °F 29.84 in SSE 3.0 mph 5.0 mph 78% 0.00 in
23:40 73.9 °F 66.6 °F 29.85 in SE 3.0 mph 4.0 mph 78% 0.00 in
23:45 74.0 °F 66.7 °F 29.85 in SE 4.0 mph 5.0 mph 78% 0.00 in
23:50 73.9 °F 66.6 °F 29.85 in SE 3.0 mph 4.0 mph 78% 0.00 in
23:55 73.9 °F 67.0 °F 29.85 in ESE 5.0 mph 6.0 mph 79% 0.00 in
Compliments of Weather Underground